METAR Data
IDs: Format: Raw Decoded Include TAF

Data at: 2107 UTC 24 Mar 2019

KERV 242055Z AUTO 18007KT 10SM OVC025 24/18 A3005 RMK AO2 T02410177
KERV 242035Z AUTO 20006KT 10SM OVC025 24/18 A3006 RMK AO2 T02380178
KERV 242015Z AUTO 19006KT 10SM OVC023 23/17 A3007 RMK AO2 T02260173
KERV 241955Z AUTO 14007KT 10SM OVC021 22/18 A3007 RMK AO2 T02200176
KERV 241935Z AUTO 17006KT 10SM OVC021 22/18 A3008 RMK AO2 T02200177
KERV 241915Z AUTO 17005KT 10SM OVC017 22/18 A3009 RMK AO2 T02200180
KERV 241855Z AUTO 19004KT 10SM OVC015 21/17 A3010 RMK AO2 T02050171
KERV 241835Z AUTO 17006KT 10SM OVC013 21/17 A3011 RMK AO2 T02050174
KERV 241815Z AUTO 19008KT 10SM OVC011 19/17 A3011 RMK AO2 T01930165
KERV 241755Z AUTO 17006KT 10SM OVC011 19/17 A3012 RMK AO2 T01900165 10190 20166
KERV 241735Z AUTO 16006KT 10SM OVC011 19/17 A3012 RMK AO2 T01900165
KERV 241715Z AUTO 17005KT 10SM OVC011 19/17 A3012 RMK AO2 T01900165

KT82 242055Z AUTO 21005KT 10SM BKN025 23/16 A3005 RMK AO2 T02280162
KT82 242035Z AUTO 21006KT 10SM BKN023 22/16 A3006 RMK AO2 T02210158
KT82 242015Z AUTO 20008KT 10SM BKN021 22/16 A3006 RMK AO2 T02180157
KT82 241955Z AUTO 21007KT 10SM BKN021 BKN026 22/16 A3006 RMK AO2 T02160159
KT82 241935Z AUTO 21007KT 10SM OVC019 21/16 A3008 RMK AO2 T02080162
KT82 241915Z AUTO 19007KT 10SM OVC017 20/16 A3009 RMK AO2 T02000162
KT82 241855Z AUTO 19007KT 10SM OVC014 20/16 A3009 RMK AO2 T01960161
KT82 241835Z AUTO 18008KT 10SM OVC016 20/16 A3010 RMK AO2 T01950160
KT82 241815Z AUTO 21008KT 10SM OVC014 19/16 A3011 RMK AO2 T01940159
KT82 241755Z AUTO 19009KT 10SM OVC012 19/16 A3011 RMK AO2 T01920159 10193 20167
KT82 241735Z AUTO 20008KT 10SM BKN007 OVC014 19/16 A3011 RMK AO2 T01860160
KT82 241715Z AUTO 20007KT 10SM OVC007 18/16 A3012 RMK AO2 T01800160

KJCT 242051Z AUTO 21012G19KT 10SM CLR 27/16 A3002 RMK AO2 SLP131 T02720161 56026
KJCT 241823Z AUTO 23010KT 10SM BKN030 24/17 A3009 RMK AO2 T02440167
KJCT 241751Z AUTO 21009KT 10SM OVC028 23/16 A3010 RMK AO2 SLP163 T02280161 10228 20183 58001

K5C1 242055Z AUTO 15003KT 10SM SCT030 23/16 A3005 RMK AO1
K5C1 242035Z AUTO 21006KT 10SM SCT028 23/16 A3006 RMK AO1
K5C1 242015Z AUTO 21007KT 10SM BKN026 23/16 A3006 RMK AO1
K5C1 241955Z AUTO 17005KT 10SM OVC024 22/16 A3007 RMK AO1
K5C1 241935Z AUTO 18006KT 10SM OVC024 21/16 A3008 RMK AO1
K5C1 241915Z AUTO 23007KT 10SM OVC022 21/16 A3009 RMK AO1
K5C1 241855Z AUTO 17005KT 10SM OVC018 21/17 A3010 RMK AO1
K5C1 241835Z AUTO 20007KT 10SM OVC016 20/17 A3011 RMK AO1
K5C1 241815Z AUTO 21004KT 10SM OVC014 19/16 A3012 RMK AO1
K5C1 241755Z AUTO 22005KT 10SM OVC012 18/17 A3013 RMK AO1
K5C1 241735Z AUTO 21008KT 10SM BKN009 OVC012 18/17 A3012 RMK AO1
K5C1 241715Z AUTO 20006KT 10SM OVC007 17/17 A3013 RMK AO1

KHDO 242051Z AUTO VRB03KT 10SM BKN026 25/18 A3003 RMK AO2 SLP154 T02500183 56023
KHDO 241951Z AUTO 00000KT 10SM OVC021 24/18 A3004 RMK AO2 SLP160 T02440183
KHDO 241851Z AUTO 13007KT 10SM OVC015 23/18 A3008 RMK AO2 SLP172 T02280183
KHDO 241751Z AUTO 17005KT 10SM OVC015 22/18 A3010 RMK AO2 SLP179 T02220178 10222 20194 58002

KUVA 242055Z AUTO 00000KT 10SM OVC024 23/18 A3004 RMK AO2 T02300183
KUVA 242035Z AUTO 05003KT 10SM OVC024 23/18 A3004 RMK AO2 T02280182
KUVA 242015Z AUTO 11004KT 10SM OVC022 23/18 A3004 RMK AO2 T02290182
KUVA 241955Z AUTO 11004KT 10SM OVC022 23/18 A3005 RMK AO2 T02250182
KUVA 241935Z AUTO 11004KT 10SM OVC020 22/18 A3006 RMK AO2 T02200181
KUVA 241915Z AUTO 13004KT 10SM OVC018 22/18 A3007 RMK AO2 T02210181
KUVA 241855Z AUTO 11003KT 10SM OVC018 22/18 A3008 RMK AO2 T02160179
KUVA 241835Z AUTO 12003KT 10SM OVC016 21/18 A3008 RMK AO2 T02110178
KUVA 241815Z AUTO 15005KT 10SM OVC014 21/18 A3009 RMK AO2 T02080178
KUVA 241755Z AUTO 16003KT 10SM OVC012 20/18 A3010 RMK AO2 T02030177 10204 20172
KUVA 241735Z AUTO 12005KT 10SM OVC012 20/18 A3010 RMK AO2 T02000176
KUVA 241715Z AUTO 16005KT 10SM OVC012 20/18 A3011 RMK AO2 T02000177

KSAT 242051Z VRB05KT 10SM BKN035 26/17 A3002 RMK AO2 SLP148 T02610167 58022
KSAT 241951Z 17007KT 10SM FEW027 BKN034 25/17 A3004 RMK AO2 SLP157 T02500172
KSAT 241851Z 18006KT 10SM OVC030 23/17 A3007 RMK AO2 SLP167 T02330172
KSAT 241751Z 20009KT 10SM OVC024 22/17 A3009 RMK AO2 SLP173 60000 T02220167 10228 20183 58006

KDWH 242053Z VRB04KT 10SM SCT038 BKN047 BKN055 27/18 A3004 RMK AO2 SLP170 60000 T02670183 56022
KDWH 241953Z 14009G15KT 10SM BKN036 BKN060 27/18 A3006 RMK AO2 SLP176 T02670178
KDWH 241853Z 19005KT 10SM FEW030 OVC060 26/18 A3008 RMK AO2 RAB1756E05 SLP184 P0000 T02560183
KDWH 241814Z 19010KT 10SM SCT028 SCT039 OVC055 24/18 A3010 RMK AO2 RAB1756E05 P0000 T02440183
KDWH 241753Z 18005KT 10SM BKN026 BKN033 OVC042 24/18 A3011 RMK AO2 RAB29E40 SLP192 P0000 60000 T02390183 10244 20161 58008

KUXL 242055Z AUTO 17012KT 10SM BKN023 BKN034 BKN041 25/18 A3012 RMK AO2 T02470178
KUXL 242035Z AUTO 15016G20KT 10SM BKN025 BKN030 OVC038 24/18 A3012 RMK AO2 T02420176
KUXL 242015Z AUTO 16013G19KT 10SM BKN023 BKN030 OVC070 24/17 A3012 RMK AO2 T02400174
KUXL 241955Z AUTO 15015G19KT 10SM BKN023 BKN033 BKN048 25/18 A3012 RMK AO2 T02470176
KUXL 241935Z AUTO 16014KT 10SM BKN025 BKN032 BKN070 25/17 A3013 RMK AO2 T02470170
KUXL 241915Z AUTO 15013G17KT 10SM BKN023 BKN032 OVC070 25/18 A3014 RMK AO2 T02490175
KUXL 241855Z AUTO 16012G16KT 10SM BKN023 BKN032 OVC070 24/17 A3015 RMK AO2 T02430174
KUXL 241835Z AUTO 17013G17KT 10SM SCT023 SCT048 OVC070 24/17 A3016 RMK AO2 T02410171
KUXL 241815Z AUTO 16011G17KT 10SM SCT023 SCT029 OVC070 25/17 A3016 RMK AO2 T02450172
KUXL 241755Z AUTO 16010G15KT 10SM SCT023 BKN036 OVC042 25/17 A3017 RMK AO2 T02470169 10247 20146
KUXL 241735Z AUTO 17011G15KT 10SM BKN023 OVC032 24/17 A3017 RMK AO2 T02420174
KUXL 241715Z AUTO 17012G17KT 10SM BKN023 OVC030 24/17 A3018 RMK AO2 T02360169

KAPS 242055Z AUTO 19005G18KT 10SM OVC050 26/14 A3013 RMK AO2 T02550137
KAPS 242035Z AUTO 21008G17KT 10SM BKN050 OVC090 26/13 A3013 RMK AO2 T02560127
KAPS 242015Z AUTO 22010KT 10SM BKN050 BKN095 25/13 A3013 RMK AO2 T02520129
KAPS 241955Z AUTO 19012G16KT 180V240 10SM SCT050 BKN095 25/12 A3013 RMK AO2 T02540124
KAPS 241935Z AUTO 22010G14KT 10SM SCT047 SCT055 OVC085 26/14 A3014 RMK AO2 T02560135
KAPS 241915Z AUTO 21008G15KT 10SM BKN047 BKN055 OVC085 26/13 A3015 RMK AO2 T02550130
KAPS 241855Z AUTO 22008KT 10SM BKN045 OVC085 25/13 A3016 RMK AO2 T02510129
KAPS 241835Z AUTO 10SM SCT045 BKN085 26/13 A3017 RMK AO2 T02550129
KAPS 241815Z AUTO 23005KT 10SM SCT043 BKN085 25/13 A3018 RMK AO2 T02500133
KAPS 241755Z AUTO 26010G16KT 10SM BKN039 BKN085 24/12 A3019 RMK AO2 T02440123 10247 20121
KAPS 241735Z AUTO 21009G18KT 10SM SCT039 25/14 A3020 RMK AO2 T02450137
KAPS 241715Z AUTO 00000KT 10SM BKN037 24/13 A3021 RMK AO2 T02420130

KJKA 242055Z AUTO 18011G19KT 10SM CLR 21/11 A3018 RMK AO2 T02110112
KJKA 242035Z AUTO 15008KT 10SM CLR 21/11 A3018 RMK AO2 T02100110
KJKA 242015Z AUTO 15008KT 10SM SCT041 21/11 A3018 RMK AO2 T02130109
KJKA 241955Z AUTO 14006G17KT 10SM SCT041 22/11 A3019 RMK AO2 T02160111
KJKA 241935Z AUTO 15010KT 10SM SCT041 21/11 A3019 RMK AO2 T02110109
KJKA 241915Z AUTO 15008KT 10SM CLR 22/11 A3020 RMK AO2 T02190112
KJKA 241855Z AUTO 15010KT 10SM CLR 21/11 A3021 RMK AO2 T02130109
KJKA 241835Z AUTO 15008G16KT 10SM CLR 22/11 A3022 RMK AO2 T02170107
KJKA 241815Z AUTO 14006KT 10SM CLR 21/10 A3023 RMK AO2 T02130104
KJKA 241755Z AUTO 15008G17KT 10SM CLR 21/10 A3024 RMK AO2 T02130104 10218 20064
KJKA 241735Z AUTO 15007KT 10SM CLR 21/11 A3025 RMK AO2 T02140108
KJKA 241715Z AUTO 15009G19KT 100V170 10SM CLR 22/10 A3025 RMK AO2 T02170101